sensor_id;sensor_type;location;lat;lon;timestamp;P1;P2;P0
71858;PMS5003;59713;50.866;4.324;2023-02-28T00:00:01;20;19;
71858;PMS5003;59713;50.866;4.324;2023-02-28T00:00:01;20;19;
71858;PMS5003;59713;50.866;4.324;2023-02-28T00:01:01;20;19;
71858;PMS5003;59713;50.866;4.324;2023-02-28T00:02:01;20;20;
71858;PMS5003;59713;50.866;4.324;2023-02-28T00:03:01;20;20;
71858;PMS5003;59713;50.866;4.324;2023-02-28T00:04:01;20;20;
71858;PMS5003;59713;50.866;4.324;2023-02-28T00:05:01;17;16;
71858;PMS5003;59713;50.866;4.324;2023-02-28T00:06:01;17;16;
71858;PMS5003;59713;50.866;4.324;2023-02-28T00:07:01;17;16;
71858;PMS5003;59713;50.866;4.324;2023-02-28T00:08:01;20;20;
71858;PMS5003;59713;50.866;4.324;2023-02-28T00:09:01;20;20;
71858;PMS5003;59713;50.866;4.324;2023-02-28T00:09:01;20;20;
71858;PMS5003;59713;50.866;4.324;2023-02-28T00:10:01;20;20;
71858;PMS5003;59713;50.866;4.324;2023-02-28T00:11:01;20;19;
71858;PMS5003;59713;50.866;4.324;2023-02-28T00:12:01;20;19;
71858;PMS5003;59713;50.866;4.324;2023-02-28T00:13:02;20;19;
71858;PMS5003;59713;50.866;4.324;2023-02-28T00:14:01;19;18;
71858;PMS5003;59713;50.866;4.324;2023-02-28T00:15:01;19;18;
71858;PMS5003;59713;50.866;4.324;2023-02-28T00:16:01;19;18;
71858;PMS5003;59713;50.866;4.324;2023-02-28T00:17:02;16;15;
71858;PMS5003;59713;50.866;4.324;2023-02-28T00:18:02;16;15;
71858;PMS5003;59713;50.866;4.324;2023-02-28T00:18:02;16;15;
71858;PMS5003;59713;50.866;4.324;2023-02-28T00:19:01;16;15;
71858;PMS5003;59713;50.866;4.324;2023-02-28T00:20:02;18;15;
71858;PMS5003;59713;50.866;4.324;2023-02-28T00:21:01;18;15;
71858;PMS5003;59713;50.866;4.324;2023-02-28T00:22:01;18;15;
71858;PMS5003;59713;50.866;4.324;2023-02-28T00:23:01;19;17;
71858;PMS5003;59713;50.866;4.324;2023-02-28T00:24:01;19;17;
71858;PMS5003;59713;50.866;4.324;2023-02-28T00:25:01;19;17;
71858;PMS5003;59713;50.866;4.324;2023-02-28T00:26:01;16;13;
71858;PMS5003;59713;50.866;4.324;2023-02-28T00:27:01;16;13;
71858;PMS5003;59713;50.866;4.324;2023-02-28T00:28:01;16;13;
71858;PMS5003;59713;50.866;4.324;2023-02-28T00:28:01;16;13;
71858;PMS5003;59713;50.866;4.324;2023-02-28T00:29:01;17;17;
71858;PMS5003;59713;50.866;4.324;2023-02-28T00:30:01;17;17;
71858;PMS5003;59713;50.866;4.324;2023-02-28T00:31:01;17;17;
71858;PMS5003;59713;50.866;4.324;2023-02-28T00:32:01;20;17;
71858;PMS5003;59713;50.866;4.324;2023-02-28T00:33:01;20;17;
71858;PMS5003;59713;50.866;4.324;2023-02-28T00:34:01;20;17;
71858;PMS5003;59713;50.866;4.324;2023-02-28T00:35:01;18;17;
71858;PMS5003;59713;50.866;4.324;2023-02-28T00:36:02;18;17;
71858;PMS5003;59713;50.866;4.324;2023-02-28T00:37:01;18;17;
71858;PMS5003;59713;50.866;4.324;2023-02-28T00:38:01;19;18;
71858;PMS5003;59713;50.866;4.324;2023-02-28T00:38:01;19;18;
71858;PMS5003;59713;50.866;4.324;2023-02-28T00:39:02;19;18;
71858;PMS5003;59713;50.866;4.324;2023-02-28T00:40:01;19;18;
71858;PMS5003;59713;50.866;4.324;2023-02-28T00:41:01;18;16;
71858;PMS5003;59713;50.866;4.324;2023-02-28T00:42:01;18;16;
71858;PMS5003;59713;50.866;4.324;2023-02-28T00:43:01;18;16;
71858;PMS5003;59713;50.866;4.324;2023-02-28T00:44:01;17;17;
71858;PMS5003;59713;50.866;4.324;2023-02-28T00:45:01;17;17;
71858;PMS5003;59713;50.866;4.324;2023-02-28T00:46:01;17;17;
71858;PMS5003;59713;50.866;4.324;2023-02-28T00:47:01;19;19;
71858;PMS5003;59713;50.866;4.324;2023-02-28T00:47:01;19;19;
71858;PMS5003;59713;50.866;4.324;2023-02-28T00:48:01;19;19;
71858;PMS5003;59713;50.866;4.324;2023-02-28T00:49:01;19;19;
71858;PMS5003;59713;50.866;4.324;2023-02-28T00:50:01;23;17;
71858;PMS5003;59713;50.866;4.324;2023-02-28T00:51:01;23;17;
71858;PMS5003;59713;50.866;4.324;2023-02-28T00:52:01;23;17;
71858;PMS5003;59713;50.866;4.324;2023-02-28T00:53:01;18;18;
71858;PMS5003;59713;50.866;4.324;2023-02-28T00:54:01;18;18;
71858;PMS5003;59713;50.866;4.324;2023-02-28T00:55:01;18;18;
71858;PMS5003;59713;50.866;4.324;2023-02-28T00:56:01;23;17;
71858;PMS5003;59713;50.866;4.324;2023-02-28T00:57:01;23;17;
71858;PMS5003;59713;50.866;4.324;2023-02-28T00:57:01;23;17;
71858;PMS5003;59713;50.866;4.324;2023-02-28T00:58:01;23;17;
71858;PMS5003;59713;50.866;4.324;2023-02-28T00:59:01;20;20;
71858;PMS5003;59713;50.866;4.324;2023-02-28T01:00:01;20;20;
71858;PMS5003;59713;50.866;4.324;2023-02-28T01:01:01;20;20;
71858;PMS5003;59713;50.866;4.324;2023-02-28T01:02:01;16;16;
71858;PMS5003;59713;50.866;4.324;2023-02-28T01:03:01;16;16;
71858;PMS5003;59713;50.866;4.324;2023-02-28T01:04:01;16;16;
71858;PMS5003;59713;50.866;4.324;2023-02-28T01:05:01;15;15;
71858;PMS5003;59713;50.866;4.324;2023-02-28T01:06:01;15;15;
71858;PMS5003;59713;50.866;4.324;2023-02-28T01:06:01;15;15;
71858;PMS5003;59713;50.866;4.324;2023-02-28T01:07:01;15;15;
71858;PMS5003;59713;50.866;4.324;2023-02-28T01:08:01;21;17;
71858;PMS5003;59713;50.866;4.324;2023-02-28T01:09:02;21;17;
71858;PMS5003;59713;50.866;4.324;2023-02-28T01:10:01;21;17;
71858;PMS5003;59713;50.866;4.324;2023-02-28T01:11:06;19;17;
71858;PMS5003;59713;50.866;4.324;2023-02-28T01:12:01;19;17;
71858;PMS5003;59713;50.866;4.324;2023-02-28T01:13:01;19;17;
71858;PMS5003;59713;50.866;4.324;2023-02-28T01:14:01;19;18;
71858;PMS5003;59713;50.866;4.324;2023-02-28T01:15:01;19;18;
71858;PMS5003;59713;50.866;4.324;2023-02-28T01:15:01;19;18;
71858;PMS5003;59713;50.866;4.324;2023-02-28T01:16:01;19;18;
71858;PMS5003;59713;50.866;4.324;2023-02-28T01:17:01;19;14;
71858;PMS5003;59713;50.866;4.324;2023-02-28T01:18:01;19;14;
71858;PMS5003;59713;50.866;4.324;2023-02-28T01:19:01;19;14;
71858;PMS5003;59713;50.866;4.324;2023-02-28T01:20:01;16;16;
71858;PMS5003;59713;50.866;4.324;2023-02-28T01:21:03;16;16;
71858;PMS5003;59713;50.866;4.324;2023-02-28T01:22:01;16;16;
71858;PMS5003;59713;50.866;4.324;2023-02-28T01:23:01;17;17;
71858;PMS5003;59713;50.866;4.324;2023-02-28T01:24:01;17;17;
71858;PMS5003;59713;50.866;4.324;2023-02-28T01:24:01;17;17;
71858;PMS5003;59713;50.866;4.324;2023-02-28T01:25:01;17;17;
71858;PMS5003;59713;50.866;4.324;2023-02-28T01:26:03;20;19;
71858;PMS5003;59713;50.866;4.324;2023-02-28T01:27:01;20;19;
71858;PMS5003;59713;50.866;4.324;2023-02-28T01:28:01;20;19;
71858;PMS5003;59713;50.866;4.324;2023-02-28T01:29:01;18;17;
71858;PMS5003;59713;50.866;4.324;2023-02-28T01:30:01;18;17;
71858;PMS5003;59713;50.866;4.324;2023-02-28T01:31:03;18;17;
71858;PMS5003;59713;50.866;4.324;2023-02-28T01:32:01;22;21;
71858;PMS5003;59713;50.866;4.324;2023-02-28T01:33:01;22;21;
71858;PMS5003;59713;50.866;4.324;2023-02-28T01:34:01;22;21;
71858;PMS5003;59713;50.866;4.324;2023-02-28T01:34:01;22;21;
71858;PMS5003;59713;50.866;4.324;2023-02-28T01:35:01;24;19;
71858;PMS5003;59713;50.866;4.324;2023-02-28T01:36:02;24;19;
71858;PMS5003;59713;50.866;4.324;2023-02-28T01:37:01;24;19;
71858;PMS5003;59713;50.866;4.324;2023-02-28T01:38:01;18;18;
71858;PMS5003;59713;50.866;4.324;2023-02-28T01:39:02;18;18;
71858;PMS5003;59713;50.866;4.324;2023-02-28T01:40:01;18;18;
71858;PMS5003;59713;50.866;4.324;2023-02-28T01:41:01;20;18;
71858;PMS5003;59713;50.866;4.324;2023-02-28T01:42:01;20;18;
71858;PMS5003;59713;50.866;4.324;2023-02-28T01:43:01;20;18;
71858;PMS5003;59713;50.866;4.324;2023-02-28T01:43:01;20;18;
71858;PMS5003;59713;50.866;4.324;2023-02-28T01:44:02;20;18;
71858;PMS5003;59713;50.866;4.324;2023-02-28T01:45:03;20;18;
71858;PMS5003;59713;50.866;4.324;2023-02-28T01:46:01;20;18;
71858;PMS5003;59713;50.866;4.324;2023-02-28T01:47:01;17;17;
71858;PMS5003;59713;50.866;4.324;2023-02-28T01:48:02;17;17;
71858;PMS5003;59713;50.866;4.324;2023-02-28T01:49:03;17;17;
71858;PMS5003;59713;50.866;4.324;2023-02-28T01:50:02;22;22;
71858;PMS5003;59713;50.866;4.324;2023-02-28T01:51:03;22;22;
71858;PMS5003;59713;50.866;4.324;2023-02-28T01:52:01;22;22;
71858;PMS5003;59713;50.866;4.324;2023-02-28T01:52:01;22;22;
71858;PMS5003;59713;50.866;4.324;2023-02-28T01:53:02;22;22;
71858;PMS5003;59713;50.866;4.324;2023-02-28T01:54:02;22;22;
71858;PMS5003;59713;50.866;4.324;2023-02-28T01:55:06;22;22;
71858;PMS5003;59713;50.866;4.324;2023-02-28T01:56:01;23;21;
71858;PMS5003;59713;50.866;4.324;2023-02-28T01:57:02;23;21;
71858;PMS5003;59713;50.866;4.324;2023-02-28T01:58:02;23;21;
71858;PMS5003;59713;50.866;4.324;2023-02-28T01:59:01;18;18;
71858;PMS5003;59713;50.866;4.324;2023-02-28T02:00:03;18;18;
71858;PMS5003;59713;50.866;4.324;2023-02-28T02:01:02;18;18;
71858;PMS5003;59713;50.866;4.324;2023-02-28T02:01:02;18;18;
71858;PMS5003;59713;50.866;4.324;2023-02-28T02:02:01;25;24;
71858;PMS5003;59713;50.866;4.324;2023-02-28T02:03:04;25;24;
71858;PMS5003;59713;50.866;4.324;2023-02-28T02:04:02;25;24;
71858;PMS5003;59713;50.866;4.324;2023-02-28T02:05:03;24;22;
71858;PMS5003;59713;50.866;4.324;2023-02-28T02:06:01;24;22;
71858;PMS5003;59713;50.866;4.324;2023-02-28T02:07:01;24;22;
71858;PMS5003;59713;50.866;4.324;2023-02-28T02:08:03;21;20;
71858;PMS5003;59713;50.866;4.324;2023-02-28T02:09:01;21;20;
71858;PMS5003;59713;50.866;4.324;2023-02-28T02:10:02;21;20;
71858;PMS5003;59713;50.866;4.324;2023-02-28T02:10:03;21;20;
71858;PMS5003;59713;50.866;4.324;2023-02-28T02:11:01;24;22;
71858;PMS5003;59713;50.866;4.324;2023-02-28T02:12:01;24;22;
71858;PMS5003;59713;50.866;4.324;2023-02-28T02:13:11;24;22;
71858;PMS5003;59713;50.866;4.324;2023-02-28T02:14:20;25;22;
71858;PMS5003;59713;50.866;4.324;2023-02-28T02:15:03;25;22;
71858;PMS5003;59713;50.866;4.324;2023-02-28T02:16:04;25;22;
71858;PMS5003;59713;50.866;4.324;2023-02-28T02:17:04;20;20;
71858;PMS5003;59713;50.866;4.324;2023-02-28T02:18:03;20;20;
71858;PMS5003;59713;50.866;4.324;2023-02-28T02:19:04;20;20;
71858;PMS5003;59713;50.866;4.324;2023-02-28T02:19:04;20;20;
71858;PMS5003;59713;50.866;4.324;2023-02-28T02:21:18;23;20;
71858;PMS5003;59713;50.866;4.324;2023-02-28T02:22:06;23;20;
71858;PMS5003;59713;50.866;4.324;2023-02-28T02:23:07;21;20;
71858;PMS5003;59713;50.866;4.324;2023-02-28T02:24:03;21;20;
71858;PMS5003;59713;50.866;4.324;2023-02-28T02:25:06;21;20;
71858;PMS5003;59713;50.866;4.324;2023-02-28T02:26:05;24;18;
71858;PMS5003;59713;50.866;4.324;2023-02-28T02:27:04;24;18;
71858;PMS5003;59713;50.866;4.324;2023-02-28T02:28:09;24;18;
71858;PMS5003;59713;50.866;4.324;2023-02-28T02:29:07;17;17;
71858;PMS5003;59713;50.866;4.324;2023-02-28T02:29:07;17;17;
71858;PMS5003;59713;50.866;4.324;2023-02-28T02:30:14;17;17;
71858;PMS5003;59713;50.866;4.324;2023-02-28T02:31:06;17;17;
71858;PMS5003;59713;50.866;4.324;2023-02-28T02:32:07;21;21;
71858;PMS5003;59713;50.866;4.324;2023-02-28T02:33:05;21;21;
71858;PMS5003;59713;50.866;4.324;2023-02-28T02:34:23;21;21;
71858;PMS5003;59713;50.866;4.324;2023-02-28T02:35:04;26;24;
71858;PMS5003;59713;50.866;4.324;2023-02-28T02:36:02;26;24;
71858;PMS5003;59713;50.866;4.324;2023-02-28T02:37:03;26;24;
71858;PMS5003;59713;50.866;4.324;2023-02-28T02:38:03;18;17;
71858;PMS5003;59713;50.866;4.324;2023-02-28T02:39:02;18;17;
71858;PMS5003;59713;50.866;4.324;2023-02-28T02:39:02;18;17;
71858;PMS5003;59713;50.866;4.324;2023-02-28T02:40:04;18;17;
71858;PMS5003;59713;50.866;4.324;2023-02-28T02:41:04;21;21;
71858;PMS5003;59713;50.866;4.324;2023-02-28T02:42:01;21;21;
71858;PMS5003;59713;50.866;4.324;2023-02-28T02:43:02;21;21;
71858;PMS5003;59713;50.866;4.324;2023-02-28T02:44:02;27;21;
71858;PMS5003;59713;50.866;4.324;2023-02-28T02:45:02;27;21;
71858;PMS5003;59713;50.866;4.324;2023-02-28T02:46:02;27;21;
71858;PMS5003;59713;50.866;4.324;2023-02-28T02:47:03;19;17;
71858;PMS5003;59713;50.866;4.324;2023-02-28T02:48:01;19;17;
71858;PMS5003;59713;50.866;4.324;2023-02-28T02:48:02;19;17;
71858;PMS5003;59713;50.866;4.324;2023-02-28T02:49:03;19;17;
71858;PMS5003;59713;50.866;4.324;2023-02-28T02:50:02;27;21;
71858;PMS5003;59713;50.866;4.324;2023-02-28T02:51:03;27;21;
71858;PMS5003;59713;50.866;4.324;2023-02-28T02:52:02;27;21;
71858;PMS5003;59713;50.866;4.324;2023-02-28T02:53:01;23;21;
71858;PMS5003;59713;50.866;4.324;2023-02-28T02:54:04;23;21;
71858;PMS5003;59713;50.866;4.324;2023-02-28T02:55:01;23;21;
71858;PMS5003;59713;50.866;4.324;2023-02-28T02:56:01;17;17;
71858;PMS5003;59713;50.866;4.324;2023-02-28T02:57:03;17;17;
71858;PMS5003;59713;50.866;4.324;2023-02-28T02:58:02;17;17;
71858;PMS5003;59713;50.866;4.324;2023-02-28T02:58:02;17;17;
71858;PMS5003;59713;50.866;4.324;2023-02-28T02:59:02;21;20;
71858;PMS5003;59713;50.866;4.324;2023-02-28T03:00:05;21;20;
71858;PMS5003;59713;50.866;4.324;2023-02-28T03:01:02;21;20;
71858;PMS5003;59713;50.866;4.324;2023-02-28T03:02:02;19;19;
71858;PMS5003;59713;50.866;4.324;2023-02-28T03:03:01;19;19;
71858;PMS5003;59713;50.866;4.324;2023-02-28T03:04:05;19;19;
71858;PMS5003;59713;50.866;4.324;2023-02-28T03:05:02;21;21;
71858;PMS5003;59713;50.866;4.324;2023-02-28T03:06:01;21;21;
71858;PMS5003;59713;50.866;4.324;2023-02-28T03:07:01;21;21;
71858;PMS5003;59713;50.866;4.324;2023-02-28T03:07:01;21;21;
71858;PMS5003;59713;50.866;4.324;2023-02-28T03:08:02;20;20;
71858;PMS5003;59713;50.866;4.324;2023-02-28T03:09:01;20;20;
71858;PMS5003;59713;50.866;4.324;2023-02-28T03:10:01;20;20;
71858;PMS5003;59713;50.866;4.324;2023-02-28T03:11:02;24;22;
71858;PMS5003;59713;50.866;4.324;2023-02-28T03:12:01;24;22;
71858;PMS5003;59713;50.866;4.324;2023-02-28T03:13:11;24;22;
71858;PMS5003;59713;50.866;4.324;2023-02-28T03:14:08;21;21;
71858;PMS5003;59713;50.866;4.324;2023-02-28T03:15:04;21;21;
71858;PMS5003;59713;50.866;4.324;2023-02-28T03:16:05;21;21;
71858;PMS5003;59713;50.866;4.324;2023-02-28T03:16:06;21;21;
71858;PMS5003;59713;50.866;4.324;2023-02-28T03:17:07;24;22;
71858;PMS5003;59713;50.866;4.324;2023-02-28T03:18:02;24;22;
71858;PMS5003;59713;50.866;4.324;2023-02-28T03:19:04;24;22;
71858;PMS5003;59713;50.866;4.324;2023-02-28T03:20:04;23;23;
71858;PMS5003;59713;50.866;4.324;2023-02-28T03:21:03;23;23;
71858;PMS5003;59713;50.866;4.324;2023-02-28T03:22:07;23;23;
71858;PMS5003;59713;50.866;4.324;2023-02-28T03:23:03;22;22;
71858;PMS5003;59713;50.866;4.324;2023-02-28T03:24:03;22;22;
71858;PMS5003;59713;50.866;4.324;2023-02-28T03:25:03;22;22;
71858;PMS5003;59713;50.866;4.324;2023-02-28T03:25:03;22;22;
71858;PMS5003;59713;50.866;4.324;2023-02-28T03:26:02;26;24;
71858;PMS5003;59713;50.866;4.324;2023-02-28T03:27:03;26;24;
71858;PMS5003;59713;50.866;4.324;2023-02-28T03:28:03;26;24;
71858;PMS5003;59713;50.866;4.324;2023-02-28T03:29:02;22;22;
71858;PMS5003;59713;50.866;4.324;2023-02-28T03:30:03;22;22;
71858;PMS5003;59713;50.866;4.324;2023-02-28T03:31:03;22;22;
71858;PMS5003;59713;50.866;4.324;2023-02-28T03:32:03;25;23;
71858;PMS5003;59713;50.866;4.324;2023-02-28T03:33:03;25;23;
71858;PMS5003;59713;50.866;4.324;2023-02-28T03:34:03;25;23;
71858;PMS5003;59713;50.866;4.324;2023-02-28T03:34:04;25;23;
71858;PMS5003;59713;50.866;4.324;2023-02-28T03:35:02;27;24;
71858;PMS5003;59713;50.866;4.324;2023-02-28T03:36:02;27;24;
71858;PMS5003;59713;50.866;4.324;2023-02-28T03:37:02;27;24;
71858;PMS5003;59713;50.866;4.324;2023-02-28T03:38:03;28;26;
71858;PMS5003;59713;50.866;4.324;2023-02-28T03:39:03;28;26;
71858;PMS5003;59713;50.866;4.324;2023-02-28T03:40:02;28;26;
71858;PMS5003;59713;50.866;4.324;2023-02-28T03:41:03;25;20;
71858;PMS5003;59713;50.866;4.324;2023-02-28T03:42:01;25;20;
71858;PMS5003;59713;50.866;4.324;2023-02-28T03:43:02;25;20;
71858;PMS5003;59713;50.866;4.324;2023-02-28T03:44:03;25;23;
71858;PMS5003;59713;50.866;4.324;2023-02-28T03:44:04;25;23;
71858;PMS5003;59713;50.866;4.324;2023-02-28T03:45:02;25;23;
71858;PMS5003;59713;50.866;4.324;2023-02-28T03:46:02;25;23;
71858;PMS5003;59713;50.866;4.324;2023-02-28T03:47:02;23;21;
71858;PMS5003;59713;50.866;4.324;2023-02-28T03:48:02;23;21;
71858;PMS5003;59713;50.866;4.324;2023-02-28T03:49:02;23;21;
71858;PMS5003;59713;50.866;4.324;2023-02-28T03:50:02;22;21;
71858;PMS5003;59713;50.866;4.324;2023-02-28T03:51:01;22;21;
71858;PMS5003;59713;50.866;4.324;2023-02-28T03:52:02;22;21;
71858;PMS5003;59713;50.866;4.324;2023-02-28T03:53:02;21;19;
71858;PMS5003;59713;50.866;4.324;2023-02-28T03:53:05;21;19;
71858;PMS5003;59713;50.866;4.324;2023-02-28T03:54:03;21;19;
71858;PMS5003;59713;50.866;4.324;2023-02-28T03:55:02;21;19;
71858;PMS5003;59713;50.866;4.324;2023-02-28T03:56:03;25;22;
71858;PMS5003;59713;50.866;4.324;2023-02-28T03:57:03;25;22;
71858;PMS5003;59713;50.866;4.324;2023-02-28T03:58:03;25;22;
71858;PMS5003;59713;50.866;4.324;2023-02-28T03:59:02;23;21;
71858;PMS5003;59713;50.866;4.324;2023-02-28T04:00:02;23;21;
71858;PMS5003;59713;50.866;4.324;2023-02-28T04:01:02;23;21;
71858;PMS5003;59713;50.866;4.324;2023-02-28T04:02:01;27;23;
71858;PMS5003;59713;50.866;4.324;2023-02-28T04:02:01;27;23;
71858;PMS5003;59713;50.866;4.324;2023-02-28T04:03:01;27;23;
71858;PMS5003;59713;50.866;4.324;2023-02-28T04:04:01;27;23;
71858;PMS5003;59713;50.866;4.324;2023-02-28T04:05:01;33;25;
71858;PMS5003;59713;50.866;4.324;2023-02-28T04:06:01;33;25;
71858;PMS5003;59713;50.866;4.324;2023-02-28T04:07:02;33;25;
71858;PMS5003;59713;50.866;4.324;2023-02-28T04:08:03;24;22;
71858;PMS5003;59713;50.866;4.324;2023-02-28T04:09:02;24;22;
71858;PMS5003;59713;50.866;4.324;2023-02-28T04:10:02;24;22;
71858;PMS5003;59713;50.866;4.324;2023-02-28T04:11:02;31;26;
71858;PMS5003;59713;50.866;4.324;2023-02-28T04:11:03;31;26;
71858;PMS5003;59713;50.866;4.324;2023-02-28T04:12:01;31;26;
71858;PMS5003;59713;50.866;4.324;2023-02-28T04:13:01;31;26;
71858;PMS5003;59713;50.866;4.324;2023-02-28T04:14:02;30;25;
71858;PMS5003;59713;50.866;4.324;2023-02-28T04:15:01;30;25;
71858;PMS5003;59713;50.866;4.324;2023-02-28T04:16:01;30;25;
71858;PMS5003;59713;50.866;4.324;2023-02-28T04:17:01;25;24;
71858;PMS5003;59713;50.866;4.324;2023-02-28T04:18:01;25;24;
71858;PMS5003;59713;50.866;4.324;2023-02-28T04:19:02;25;24;
71858;PMS5003;59713;50.866;4.324;2023-02-28T04:20:01;24;23;
71858;PMS5003;59713;50.866;4.324;2023-02-28T04:21:01;24;23;
71858;PMS5003;59713;50.866;4.324;2023-02-28T04:21:01;24;23;
71858;PMS5003;59713;50.866;4.324;2023-02-28T04:22:01;24;23;
71858;PMS5003;59713;50.866;4.324;2023-02-28T04:23:01;24;23;
71858;PMS5003;59713;50.866;4.324;2023-02-28T04:24:01;24;23;
71858;PMS5003;59713;50.866;4.324;2023-02-28T04:25:01;24;23;
71858;PMS5003;59713;50.866;4.324;2023-02-28T04:26:01;27;24;
71858;PMS5003;59713;50.866;4.324;2023-02-28T04:27:01;27;24;
71858;PMS5003;59713;50.866;4.324;2023-02-28T04:28:01;27;24;
71858;PMS5003;59713;50.866;4.324;2023-02-28T04:29:02;26;26;
71858;PMS5003;59713;50.866;4.324;2023-02-28T04:30:02;26;26;
71858;PMS5003;59713;50.866;4.324;2023-02-28T04:30:02;26;26;
71858;PMS5003;59713;50.866;4.324;2023-02-28T04:31:02;26;26;
71858;PMS5003;59713;50.866;4.324;2023-02-28T04:32:02;28;24;
71858;PMS5003;59713;50.866;4.324;2023-02-28T04:33:02;28;24;
71858;PMS5003;59713;50.866;4.324;2023-02-28T04:34:02;28;24;
71858;PMS5003;59713;50.866;4.324;2023-02-28T04:35:01;21;17;
71858;PMS5003;59713;50.866;4.324;2023-02-28T04:36:02;21;17;
71858;PMS5003;59713;50.866;4.324;2023-02-28T04:37:02;21;17;
71858;PMS5003;59713;50.866;4.324;2023-02-28T04:38:01;26;25;
71858;PMS5003;59713;50.866;4.324;2023-02-28T04:39:01;26;25;
71858;PMS5003;59713;50.866;4.324;2023-02-28T04:39:01;26;25;
71858;PMS5003;59713;50.866;4.324;2023-02-28T04:40:01;26;25;
71858;PMS5003;59713;50.866;4.324;2023-02-28T04:41:01;26;22;
71858;PMS5003;59713;50.866;4.324;2023-02-28T04:42:01;26;22;
71858;PMS5003;59713;50.866;4.324;2023-02-28T04:43:01;26;22;
71858;PMS5003;59713;50.866;4.324;2023-02-28T04:44:01;30;24;
71858;PMS5003;59713;50.866;4.324;2023-02-28T04:45:02;30;24;
71858;PMS5003;59713;50.866;4.324;2023-02-28T04:46:03;30;24;
71858;PMS5003;59713;50.866;4.324;2023-02-28T04:47:01;22;22;
71858;PMS5003;59713;50.866;4.324;2023-02-28T04:48:01;22;22;
71858;PMS5003;59713;50.866;4.324;2023-02-28T04:49:01;22;22;
71858;PMS5003;59713;50.866;4.324;2023-02-28T04:49:01;22;22;
71858;PMS5003;59713;50.866;4.324;2023-02-28T04:50:01;26;24;
71858;PMS5003;59713;50.866;4.324;2023-02-28T04:51:01;26;24;
71858;PMS5003;59713;50.866;4.324;2023-02-28T04:52:01;26;24;
71858;PMS5003;59713;50.866;4.324;2023-02-28T04:53:01;24;24;
71858;PMS5003;59713;50.866;4.324;2023-02-28T04:54:01;24;24;
71858;PMS5003;59713;50.866;4.324;2023-02-28T04:55:01;24;24;
71858;PMS5003;59713;50.866;4.324;2023-02-28T04:56:01;31;26;
71858;PMS5003;59713;50.866;4.324;2023-02-28T04:57:01;31;26;
71858;PMS5003;59713;50.866;4.324;2023-02-28T04:58:01;31;26;
71858;PMS5003;59713;50.866;4.324;2023-02-28T04:58:01;31;26;
71858;PMS5003;59713;50.866;4.324;2023-02-28T04:59:01;27;27;
71858;PMS5003;59713;50.866;4.324;2023-02-28T05:00:02;27;27;
71858;PMS5003;59713;50.866;4.324;2023-02-28T05:01:03;27;27;
71858;PMS5003;59713;50.866;4.324;2023-02-28T05:02:03;23;23;
71858;PMS5003;59713;50.866;4.324;2023-02-28T05:03:01;23;23;
71858;PMS5003;59713;50.866;4.324;2023-02-28T05:04:02;23;23;
71858;PMS5003;59713;50.866;4.324;2023-02-28T05:05:01;26;24;
71858;PMS5003;59713;50.866;4.324;2023-02-28T05:06:01;26;24;
71858;PMS5003;59713;50.866;4.324;2023-02-28T05:07:02;26;24;
71858;PMS5003;59713;50.866;4.324;2023-02-28T05:08:01;22;21;
71858;PMS5003;59713;50.866;4.324;2023-02-28T05:08:01;22;21;
71858;PMS5003;59713;50.866;4.324;2023-02-28T05:09:01;22;21;
71858;PMS5003;59713;50.866;4.324;2023-02-28T05:10:01;22;21;
71858;PMS5003;59713;50.866;4.324;2023-02-28T05:11:02;28;25;
71858;PMS5003;59713;50.866;4.324;2023-02-28T05:12:01;28;25;
71858;PMS5003;59713;50.866;4.324;2023-02-28T05:13:01;28;25;
71858;PMS5003;59713;50.866;4.324;2023-02-28T05:14:02;25;23;
71858;PMS5003;59713;50.866;4.324;2023-02-28T05:15:02;25;23;
71858;PMS5003;59713;50.866;4.324;2023-02-28T05:16:01;25;23;
71858;PMS5003;59713;50.866;4.324;2023-02-28T05:17:01;29;27;
71858;PMS5003;59713;50.866;4.324;2023-02-28T05:17:01;29;27;
71858;PMS5003;59713;50.866;4.324;2023-02-28T05:18:01;29;27;
71858;PMS5003;59713;50.866;4.324;2023-02-28T05:19:01;29;27;
71858;PMS5003;59713;50.866;4.324;2023-02-28T05:20:01;31;27;
71858;PMS5003;59713;50.866;4.324;2023-02-28T05:21:01;31;27;
71858;PMS5003;59713;50.866;4.324;2023-02-28T05:22:01;31;27;
71858;PMS5003;59713;50.866;4.324;2023-02-28T05:23:01;23;22;
71858;PMS5003;59713;50.866;4.324;2023-02-28T05:24:02;23;22;
71858;PMS5003;59713;50.866;4.324;2023-02-28T05:25:01;23;22;
71858;PMS5003;59713;50.866;4.324;2023-02-28T05:26:01;27;25;
71858;PMS5003;59713;50.866;4.324;2023-02-28T05:26:01;27;25;
71858;PMS5003;59713;50.866;4.324;2023-02-28T05:27:06;27;25;
71858;PMS5003;59713;50.866;4.324;2023-02-28T05:28:02;27;25;
71858;PMS5003;59713;50.866;4.324;2023-02-28T05:29:01;22;22;
71858;PMS5003;59713;50.866;4.324;2023-02-28T05:30:02;22;22;
71858;PMS5003;59713;50.866;4.324;2023-02-28T05:31:01;22;22;
71858;PMS5003;59713;50.866;4.324;2023-02-28T05:32:01;18;15;
71858;PMS5003;59713;50.866;4.324;2023-02-28T05:33:01;18;15;
71858;PMS5003;59713;50.866;4.324;2023-02-28T05:34:02;18;15;
71858;PMS5003;59713;50.866;4.324;2023-02-28T05:35:01;26;21;
71858;PMS5003;59713;50.866;4.324;2023-02-28T05:35:01;26;21;
71858;PMS5003;59713;50.866;4.324;2023-02-28T05:36:01;26;21;
71858;PMS5003;59713;50.866;4.324;2023-02-28T05:37:01;26;21;
71858;PMS5003;59713;50.866;4.324;2023-02-28T05:38:01;27;24;
71858;PMS5003;59713;50.866;4.324;2023-02-28T05:39:02;27;24;
71858;PMS5003;59713;50.866;4.324;2023-02-28T05:40:02;27;24;
71858;PMS5003;59713;50.866;4.324;2023-02-28T05:41:04;11;11;
71858;PMS5003;59713;50.866;4.324;2023-02-28T05:42:01;11;11;
71858;PMS5003;59713;50.866;4.324;2023-02-28T05:43:01;11;11;
71858;PMS5003;59713;50.866;4.324;2023-02-28T05:44:01;25;21;
71858;PMS5003;59713;50.866;4.324;2023-02-28T05:45:01;25;21;
71858;PMS5003;59713;50.866;4.324;2023-02-28T05:45:01;25;21;
71858;PMS5003;59713;50.866;4.324;2023-02-28T05:46:02;25;21;
71858;PMS5003;59713;50.866;4.324;2023-02-28T05:47:01;26;26;
71858;PMS5003;59713;50.866;4.324;2023-02-28T05:48:01;26;26;
71858;PMS5003;59713;50.866;4.324;2023-02-28T05:49:01;26;26;
71858;PMS5003;59713;50.866;4.324;2023-02-28T05:50:02;29;26;
71858;PMS5003;59713;50.866;4.324;2023-02-28T05:51:01;29;26;
71858;PMS5003;59713;50.866;4.324;2023-02-28T05:52:01;29;26;
71858;PMS5003;59713;50.866;4.324;2023-02-28T05:53:01;18;16;
71858;PMS5003;59713;50.866;4.324;2023-02-28T05:54:02;18;16;
71858;PMS5003;59713;50.866;4.324;2023-02-28T05:54:02;18;16;
71858;PMS5003;59713;50.866;4.324;2023-02-28T05:55:02;18;16;
71858;PMS5003;59713;50.866;4.324;2023-02-28T05:56:02;24;24;
71858;PMS5003;59713;50.866;4.324;2023-02-28T05:57:01;24;24;
71858;PMS5003;59713;50.866;4.324;2023-02-28T05:58:01;24;24;
71858;PMS5003;59713;50.866;4.324;2023-02-28T05:59:01;33;28;
71858;PMS5003;59713;50.866;4.324;2023-02-28T06:00:02;33;28;